createdAt,value
2018-07-07T00:00:08.975Z,91.39
2018-07-07T00:01:09.001Z,92.15
2018-07-07T00:02:09.029Z,91.58
2018-07-07T00:03:09.049Z,92.44
2018-07-07T00:04:09.069Z,92.82
2018-07-07T00:05:09.109Z,91.10
2018-07-07T00:06:09.122Z,90.81
2018-07-07T00:07:09.145Z,91.39
2018-07-07T00:08:09.173Z,89.86
2018-07-07T00:09:09.196Z,91.00
2018-07-07T00:10:09.226Z,92.44
2018-07-07T00:11:09.240Z,90.62
2018-07-07T00:12:09.265Z,91.15
2018-07-07T00:13:09.284Z,92.35
2018-07-07T00:14:09.311Z,92.15
2018-07-07T00:15:09.342Z,90.81
2018-07-07T00:16:09.359Z,90.91
2018-07-07T00:17:09.383Z,91.00
2018-07-07T00:18:09.412Z,90.72
2018-07-07T00:19:09.442Z,92.44
2018-07-07T00:20:09.461Z,91.49
2018-07-07T00:21:09.484Z,91.63
2018-07-07T00:22:09.508Z,92.92
2018-07-07T00:23:09.532Z,92.87
2018-07-07T00:24:09.554Z,92.06
2018-07-07T00:25:09.583Z,92.21
2018-07-07T00:26:09.601Z,91.82
2018-07-07T00:27:09.685Z,91.49
2018-07-07T00:28:09.651Z,91.25
2018-07-07T00:29:09.674Z,91.96
2018-07-07T00:30:09.701Z,92.35
2018-07-07T00:31:09.721Z,92.35
2018-07-07T00:32:09.755Z,92.25
2018-07-07T00:33:09.769Z,92.21
2018-07-07T00:34:09.789Z,92.97
2018-07-07T00:35:09.823Z,92.92
2018-07-07T00:36:09.838Z,94.12
2018-07-07T00:37:09.869Z,92.58
2018-07-07T00:38:09.892Z,94.21
2018-07-07T00:39:09.917Z,93.45
2018-07-07T00:40:09.940Z,92.92
2018-07-07T00:41:09.965Z,94.07
2018-07-07T00:42:09.985Z,92.44
2018-07-07T00:43:10.009Z,93.16
2018-07-07T00:44:10.039Z,92.06
2018-07-07T00:45:10.057Z,93.02
2018-07-07T00:46:10.079Z,93.02
2018-07-07T00:47:10.103Z,92.58
2018-07-07T00:48:10.136Z,94.35
2018-07-07T00:49:10.156Z,92.78
2018-07-07T00:50:10.178Z,93.02
2018-07-07T00:51:10.200Z,91.96
2018-07-07T00:52:10.224Z,93.88
2018-07-07T00:53:10.249Z,94.17
2018-07-07T00:54:10.273Z,93.02
2018-07-07T00:55:10.300Z,94.84
2018-07-07T00:56:10.318Z,94.35
2018-07-07T00:57:10.342Z,94.17
2018-07-07T00:58:10.364Z,94.60
2018-07-07T00:59:10.399Z,94.40
2018-07-07T01:00:10.416Z,95.79
2018-07-07T01:01:10.440Z,94.84
2018-07-07T01:02:10.462Z,94.64
2018-07-07T01:03:10.489Z,95.22
2018-07-07T01:04:10.515Z,94.69
2018-07-07T01:05:10.538Z,95.51
2018-07-07T01:06:10.558Z,94.40
2018-07-07T01:07:10.586Z,93.93
2018-07-07T01:08:10.608Z,94.50
2018-07-07T01:09:10.634Z,95.46
2018-07-07T01:10:10.659Z,94.89
2018-07-07T01:11:10.688Z,96.03
2018-07-07T01:12:10.709Z,95.41
2018-07-07T01:13:10.724Z,93.93
2018-07-07T01:14:10.755Z,94.69
2018-07-07T01:15:10.771Z,94.64
2018-07-07T01:16:10.799Z,96.32
2018-07-07T01:17:10.823Z,97.04
2018-07-07T01:18:10.849Z,95.60
2018-07-07T01:19:10.885Z,95.60
2018-07-07T01:20:10.888Z,95.84
2018-07-07T01:21:10.924Z,96.42
2018-07-07T01:22:10.940Z,95.94
2018-07-07T01:23:10.966Z,96.22
2018-07-07T01:24:10.993Z,94.69
2018-07-07T01:25:11.012Z,95.17
2018-07-07T01:26:11.042Z,96.37
2018-07-07T01:27:11.062Z,96.42
2018-07-07T01:28:11.090Z,95.27
2018-07-07T01:29:11.120Z,96.27
2018-07-07T01:30:11.134Z,97.42
2018-07-07T01:31:11.156Z,97.66
2018-07-07T01:32:11.182Z,96.18
2018-07-07T01:33:11.208Z,96.27
2018-07-07T01:34:11.230Z,96.89
2018-07-07T01:35:11.256Z,95.98
2018-07-07T01:36:11.278Z,97.18
2018-07-07T01:37:11.304Z,97.18
2018-07-07T01:38:11.321Z,96.13
2018-07-07T01:39:11.346Z,96.47
2018-07-07T01:40:11.377Z,96.70
2018-07-07T01:41:11.401Z,96.75
2018-07-07T01:42:11.419Z,96.22
2018-07-07T01:43:11.448Z,96.99
2018-07-07T01:44:11.468Z,96.80
2018-07-07T01:45:11.493Z,97.56
2018-07-07T01:46:11.516Z,96.32
2018-07-07T01:47:11.534Z,96.70
2018-07-07T01:48:11.568Z,97.42
2018-07-07T01:49:11.590Z,97.38
2018-07-07T01:50:11.610Z,96.13
2018-07-07T01:51:11.637Z,95.46
2018-07-07T01:52:11.656Z,96.08
2018-07-07T01:53:11.684Z,97.09
2018-07-07T01:54:11.712Z,97.95
2018-07-07T01:55:11.736Z,96.61
2018-07-07T01:56:11.758Z,98.43
2018-07-07T01:57:11.774Z,98.52
2018-07-07T01:58:11.807Z,97.75
2018-07-07T01:59:11.829Z,98.24
2018-07-07T02:00:11.848Z,98.33
2018-07-07T02:01:11.882Z,98.52
2018-07-07T02:02:11.894Z,97.75
2018-07-07T02:03:11.925Z,98.33
2018-07-07T02:04:11.943Z,98.81
2018-07-07T02:05:11.975Z,99.00
2018-07-07T02:06:11.989Z,98.52
2018-07-07T02:07:12.014Z,97.95
2018-07-07T02:08:12.045Z,97.38
2018-07-07T02:09:12.059Z,97.09
2018-07-07T02:10:12.086Z,97.95
2018-07-07T02:11:12.111Z,97.75
2018-07-07T02:12:12.138Z,98.33
2018-07-07T02:13:12.160Z,98.52
2018-07-07T02:14:12.185Z,98.33
2018-07-07T02:15:12.208Z,98.24
2018-07-07T02:16:12.230Z,99.99
2018-07-07T02:17:12.249Z,98.14
2018-07-07T02:18:12.278Z,97.38
2018-07-07T02:19:12.304Z,98.19
2018-07-07T02:20:12.328Z,97.95
2018-07-07T02:21:12.361Z,97.75
2018-07-07T02:22:12.369Z,97.85
2018-07-07T02:23:12.399Z,98.33
2018-07-07T02:24:12.426Z,98.33
2018-07-07T02:25:12.446Z,98.05
2018-07-07T02:26:12.471Z,98.33
2018-07-07T02:27:12.492Z,97.90
2018-07-07T02:28:12.518Z,98.05
2018-07-07T02:29:12.570Z,97.95
2018-07-07T02:30:12.568Z,98.24
2018-07-07T02:31:12.585Z,98.52
2018-07-07T02:32:12.611Z,97.75
2018-07-07T02:33:12.638Z,99.99
2018-07-07T02:34:12.657Z,99.87
2018-07-07T02:35:12.687Z,98.62
2018-07-07T02:36:12.705Z,99.10
2018-07-07T02:37:12.728Z,99.77
2018-07-07T02:38:12.750Z,99.99
2018-07-07T02:39:12.782Z,98.52
2018-07-07T02:40:12.800Z,99.48
2018-07-07T02:41:12.824Z,98.91
2018-07-07T02:42:12.848Z,98.43
2018-07-07T02:43:12.872Z,98.14
2018-07-07T02:44:12.895Z,98.05
2018-07-07T02:45:12.930Z,99.67
2018-07-07T02:46:13.021Z,99.48
2018-07-07T02:47:12.963Z,98.81
2018-07-07T02:48:12.991Z,99.38
2018-07-07T02:49:13.016Z,98.91
2018-07-07T02:50:13.039Z,99.99
2018-07-07T02:51:13.063Z,98.33
2018-07-07T02:52:13.084Z,98.67
2018-07-07T02:53:13.111Z,98.62
2018-07-07T02:54:13.140Z,99.48
2018-07-07T02:55:13.155Z,99.67
2018-07-07T02:56:13.184Z,99.48
2018-07-07T02:57:13.202Z,98.91
2018-07-07T02:58:13.226Z,98.33
2018-07-07T02:59:13.256Z,99.77
2018-07-07T03:00:13.276Z,99.58
2018-07-07T03:01:13.302Z,99.00
2018-07-07T03:02:13.325Z,99.99
2018-07-07T03:03:13.357Z,99.48
2018-07-07T03:04:13.368Z,99.38
2018-07-07T03:05:13.397Z,99.00
2018-07-07T03:06:13.414Z,99.38
2018-07-07T03:07:13.443Z,99.48
2018-07-07T03:08:13.467Z,99.58
2018-07-07T03:09:13.487Z,99.48
2018-07-07T03:10:13.516Z,99.48
2018-07-07T03:11:13.539Z,99.99
2018-07-07T03:12:13.569Z,99.38
2018-07-07T03:13:13.586Z,99.87
2018-07-07T03:14:13.611Z,99.87
2018-07-07T03:15:13.634Z,99.10
2018-07-07T03:16:13.655Z,99.58
2018-07-07T03:17:13.681Z,98.62
2018-07-07T03:18:13.700Z,98.24
2018-07-07T03:19:13.732Z,99.10
2018-07-07T03:20:13.765Z,99.96
2018-07-07T03:21:13.774Z,98.33
2018-07-07T03:22:13.801Z,98.33
2018-07-07T03:23:13.822Z,98.52
2018-07-07T03:24:13.849Z,98.76
2018-07-07T03:25:13.875Z,98.81
2018-07-07T03:26:13.895Z,98.43
2018-07-07T03:27:13.921Z,99.19
2018-07-07T03:28:13.947Z,99.72
2018-07-07T03:29:13.968Z,99.99
2018-07-07T03:30:13.997Z,99.77
2018-07-07T03:31:14.017Z,98.43
2018-07-07T03:32:14.046Z,99.10
2018-07-07T03:33:14.065Z,99.48
2018-07-07T03:34:14.089Z,99.87
2018-07-07T03:35:14.108Z,99.58
2018-07-07T03:36:14.136Z,99.96
2018-07-07T03:37:14.160Z,99.48
2018-07-07T03:38:14.180Z,98.43
2018-07-07T03:39:14.207Z,98.24
2018-07-07T03:40:14.234Z,99.48
2018-07-07T03:41:14.255Z,99.99
2018-07-07T03:42:14.291Z,98.14
2018-07-07T03:43:14.302Z,98.43
2018-07-07T03:44:14.326Z,99.99
2018-07-07T03:45:14.350Z,99.48
2018-07-07T03:46:14.373Z,99.99
2018-07-07T03:47:14.393Z,99.99
2018-07-07T03:48:14.419Z,98.14
2018-07-07T03:49:14.499Z,99.48
2018-07-07T03:50:14.474Z,98.91
2018-07-07T03:51:14.497Z,99.99
2018-07-07T03:52:14.521Z,98.14
2018-07-07T03:53:14.535Z,98.52
2018-07-07T03:54:14.564Z,98.33
2018-07-07T03:55:14.583Z,97.95
2018-07-07T03:56:14.613Z,98.24
2018-07-07T03:57:14.633Z,97.18
2018-07-07T03:58:14.655Z,98.14
2018-07-07T03:59:14.687Z,98.43
2018-07-07T04:00:14.703Z,98.14
2018-07-07T04:01:14.734Z,96.89
2018-07-07T04:02:14.759Z,98.43
2018-07-07T04:03:14.779Z,96.89
2018-07-07T04:04:14.807Z,97.95
2018-07-07T04:05:14.821Z,97.95
2018-07-07T04:06:14.848Z,97.47
2018-07-07T04:07:14.881Z,97.75
2018-07-07T04:08:14.893Z,96.89
2018-07-07T04:09:14.921Z,97.56
2018-07-07T04:10:14.941Z,97.38
2018-07-07T04:11:14.962Z,96.51
2018-07-07T04:12:14.995Z,96.80
2018-07-07T04:13:15.017Z,95.94
2018-07-07T04:14:15.037Z,96.03
2018-07-07T04:15:15.061Z,96.22
2018-07-07T04:16:15.092Z,97.38
2018-07-07T04:17:15.110Z,95.46
2018-07-07T04:18:15.139Z,95.56
2018-07-07T04:19:15.161Z,96.42
2018-07-07T04:20:15.185Z,95.79
2018-07-07T04:21:15.213Z,94.69
2018-07-07T04:22:15.232Z,94.64
2018-07-07T04:23:15.263Z,94.02
2018-07-07T04:24:15.279Z,95.56
2018-07-07T04:25:15.304Z,95.36
2018-07-07T04:26:15.325Z,95.60
2018-07-07T04:27:15.354Z,96.94
2018-07-07T04:28:15.375Z,95.41
2018-07-07T04:29:15.399Z,95.31
2018-07-07T04:30:15.421Z,94.84
2018-07-07T04:31:15.443Z,94.64
2018-07-07T04:32:15.467Z,94.55
2018-07-07T04:33:15.495Z,93.11
2018-07-07T04:34:15.520Z,93.40
2018-07-07T04:35:15.542Z,93.59
2018-07-07T04:36:15.569Z,95.31
2018-07-07T04:37:15.589Z,94.45
2018-07-07T04:38:15.610Z,94.07
2018-07-07T04:39:15.635Z,91.86
2018-07-07T04:40:15.659Z,93.98
2018-07-07T04:41:15.685Z,95.51
2018-07-07T04:42:15.705Z,96.56
2018-07-07T04:43:15.732Z,93.02
2018-07-07T04:44:15.757Z,92.82
2018-07-07T04:45:15.781Z,94.07
2018-07-07T04:46:15.801Z,94.55
2018-07-07T04:47:15.831Z,93.78
2018-07-07T04:48:15.859Z,94.64
2018-07-07T04:49:15.879Z,92.54
2018-07-07T04:50:15.913Z,93.78
2018-07-07T04:51:15.925Z,93.21
2018-07-07T04:52:15.959Z,93.30
2018-07-07T04:53:15.976Z,91.58
2018-07-07T04:54:15.990Z,91.96
2018-07-07T04:55:16.019Z,92.82
2018-07-07T04:56:16.045Z,89.37
2018-07-07T04:57:16.080Z,89.66
2018-07-07T04:58:16.097Z,92.01
2018-07-07T04:59:16.112Z,90.53
2018-07-07T05:00:16.139Z,90.38
2018-07-07T05:01:16.163Z,89.76
2018-07-07T05:02:16.183Z,89.51
2018-07-07T05:03:16.212Z,89.61
2018-07-07T05:04:16.234Z,89.47
2018-07-07T05:05:16.261Z,89.28
2018-07-07T05:06:16.285Z,88.32
2018-07-07T05:07:16.309Z,90.53
2018-07-07T05:08:16.328Z,88.32
2018-07-07T05:09:16.356Z,89.32
2018-07-07T05:10:16.380Z,91.10
2018-07-07T05:11:16.404Z,90.72
2018-07-07T05:12:16.432Z,89.57
2018-07-07T05:13:16.448Z,88.80
2018-07-07T05:14:16.474Z,89.09
2018-07-07T05:15:16.504Z,88.70
2018-07-07T05:16:16.525Z,90.53
2018-07-07T05:17:16.559Z,88.42
2018-07-07T05:18:16.570Z,88.37
2018-07-07T05:19:16.598Z,89.76
2018-07-07T05:20:16.621Z,91.39
2018-07-07T05:21:16.644Z,90.47
2018-07-07T05:22:16.672Z,89.09
2018-07-07T05:23:16.698Z,88.99
2018-07-07T05:24:16.720Z,88.37
2018-07-07T05:25:16.742Z,89.18
2018-07-07T05:26:16.768Z,87.70
2018-07-07T05:27:16.797Z,87.60
2018-07-07T05:28:16.813Z,88.94
2018-07-07T05:29:16.846Z,87.70
2018-07-07T05:30:16.868Z,86.25
2018-07-07T05:31:16.903Z,87.70
2018-07-07T05:32:16.917Z,88.27
2018-07-07T05:33:16.932Z,86.83
2018-07-07T05:34:16.956Z,87.21
2018-07-07T05:35:16.980Z,87.12
2018-07-07T05:36:17.022Z,87.98
2018-07-07T05:37:17.117Z,87.12
2018-07-07T05:38:17.056Z,87.31
2018-07-07T05:39:17.080Z,88.56
2018-07-07T05:40:17.106Z,89.23
2018-07-07T05:41:17.125Z,90.09
2018-07-07T05:42:17.153Z,87.21
2018-07-07T05:43:17.179Z,87.70
2018-07-07T05:44:17.204Z,87.31
2018-07-07T05:45:17.220Z,87.21
2018-07-07T05:46:17.246Z,87.41
2018-07-07T05:47:17.271Z,87.21
2018-07-07T05:48:17.298Z,84.91
2018-07-07T05:49:17.318Z,84.63
2018-07-07T05:50:17.344Z,84.72
2018-07-07T05:51:17.370Z,86.25
2018-07-07T05:52:17.392Z,87.31
2018-07-07T05:53:17.416Z,86.54
2018-07-07T05:54:17.440Z,85.44
2018-07-07T05:55:17.465Z,86.25
2018-07-07T05:56:17.494Z,87.12
2018-07-07T05:57:17.549Z,84.44
2018-07-07T05:58:17.536Z,86.25
2018-07-07T05:59:17.561Z,86.11
2018-07-07T06:00:17.587Z,83.58
2018-07-07T06:01:17.612Z,84.15
2018-07-07T06:02:17.634Z,87.50
2018-07-07T06:03:17.660Z,87.45
2018-07-07T06:04:17.688Z,85.72
2018-07-07T06:05:17.711Z,83.71
2018-07-07T06:06:17.735Z,83.81
2018-07-07T06:07:17.757Z,86.16
2018-07-07T06:08:17.782Z,87.26
2018-07-07T06:09:17.806Z,87.07
2018-07-07T06:10:17.828Z,85.25
2018-07-07T06:11:17.852Z,83.52
2018-07-07T06:12:17.879Z,84.09
2018-07-07T06:13:17.903Z,83.04
2018-07-07T06:14:17.931Z,85.05
2018-07-07T06:15:17.953Z,87.16
2018-07-07T06:16:17.970Z,83.23
2018-07-07T06:17:17.997Z,83.23
2018-07-07T06:18:18.036Z,83.04
2018-07-07T06:19:18.048Z,82.85
2018-07-07T06:20:18.073Z,83.91
2018-07-07T06:21:18.101Z,85.53
2018-07-07T06:22:18.125Z,86.01
2018-07-07T06:23:18.142Z,85.15
2018-07-07T06:24:18.170Z,83.71
2018-07-07T06:25:18.195Z,82.08
2018-07-07T06:26:18.219Z,83.33
2018-07-07T06:27:18.245Z,85.44
2018-07-07T06:28:18.270Z,83.71
2018-07-07T06:29:18.294Z,83.71
2018-07-07T06:30:18.323Z,83.71
2018-07-07T06:31:18.340Z,81.98
2018-07-07T06:32:18.374Z,81.51
2018-07-07T06:33:18.387Z,83.42
2018-07-07T06:34:18.410Z,81.12
2018-07-07T06:35:18.445Z,81.12
2018-07-07T06:36:18.461Z,82.85
2018-07-07T06:37:18.488Z,83.81
2018-07-07T06:38:18.510Z,83.75
2018-07-07T06:39:18.538Z,84.91
2018-07-07T06:40:18.557Z,82.03
2018-07-07T06:41:18.584Z,82.98
2018-07-07T06:42:18.613Z,84.91
2018-07-07T06:43:18.633Z,83.94
2018-07-07T06:44:18.655Z,83.27
2018-07-07T06:45:18.681Z,79.78
2018-07-07T06:46:18.710Z,80.45
2018-07-07T06:47:18.732Z,82.56
2018-07-07T06:48:18.757Z,83.75
2018-07-07T06:49:18.794Z,83.08
2018-07-07T06:50:18.799Z,82.70
2018-07-07T06:51:18.825Z,83.75
2018-07-07T06:52:18.851Z,82.51
2018-07-07T06:53:18.874Z,80.58
2018-07-07T06:54:18.902Z,81.84
2018-07-07T06:55:18.929Z,82.51
2018-07-07T06:56:18.948Z,79.91
2018-07-07T06:57:18.972Z,79.63
2018-07-07T06:58:18.997Z,80.87
2018-07-07T06:59:19.027Z,79.24
2018-07-07T07:00:19.049Z,79.14
2018-07-07T07:01:19.070Z,78.96
2018-07-07T07:02:19.098Z,80.40
2018-07-07T07:03:19.155Z,80.30
2018-07-07T07:04:19.146Z,78.67
2018-07-07T07:05:19.171Z,80.49
2018-07-07T07:06:19.207Z,80.91
2018-07-07T07:07:19.222Z,81.20
2018-07-07T07:08:19.253Z,81.59
2018-07-07T07:09:19.272Z,79.67
2018-07-07T07:10:19.291Z,78.80
2018-07-07T07:11:19.322Z,79.76
2018-07-07T07:12:19.341Z,79.57
2018-07-07T07:13:19.374Z,78.61
2018-07-07T07:14:19.389Z,78.61
2018-07-07T07:15:19.416Z,78.80
2018-07-07T07:16:19.440Z,78.42
2018-07-07T07:17:19.469Z,77.36
2018-07-07T07:18:19.490Z,76.40
2018-07-07T07:19:19.520Z,77.36
2018-07-07T07:20:19.539Z,77.59
2018-07-07T07:21:19.563Z,78.08
2018-07-07T07:22:19.600Z,77.21
2018-07-07T07:23:19.614Z,76.44
2018-07-07T07:24:19.642Z,75.62
2018-07-07T07:25:19.668Z,75.32
2018-07-07T07:26:19.732Z,74.46
2018-07-07T07:27:19.714Z,73.88
2018-07-07T07:28:19.743Z,73.56
2018-07-07T07:29:19.768Z,73.37
2018-07-07T07:30:19.789Z,72.69
2018-07-07T07:31:19.812Z,72.89
2018-07-07T07:32:19.844Z,72.02
2018-07-07T07:33:19.862Z,72.89
2018-07-07T07:34:19.890Z,75.48
2018-07-07T07:35:19.914Z,73.50
2018-07-07T07:36:19.950Z,73.75
2018-07-07T07:37:19.974Z,73.69
2018-07-07T07:38:19.990Z,73.88
2018-07-07T07:39:20.018Z,73.69
2018-07-07T07:40:20.040Z,73.56
2018-07-07T07:41:20.068Z,74.90
2018-07-07T07:42:20.090Z,75.38
2018-07-07T07:43:20.173Z,74.71
2018-07-07T07:44:20.143Z,74.62
2018-07-07T07:45:20.180Z,75.10
2018-07-07T07:46:20.193Z,74.04
2018-07-07T07:47:20.220Z,74.04
2018-07-07T07:48:20.242Z,78.84
2018-07-07T07:49:20.274Z,77.50
2018-07-07T07:50:20.293Z,74.04
2018-07-07T07:51:20.329Z,75.20
2018-07-07T07:52:20.353Z,74.81
2018-07-07T07:53:20.369Z,72.60
2018-07-07T07:54:20.394Z,72.31
2018-07-07T07:55:20.420Z,72.37
2018-07-07T07:56:20.446Z,75.96
2018-07-07T07:57:20.470Z,73.66
2018-07-07T07:58:20.494Z,72.50
2018-07-07T07:59:20.518Z,72.69
2018-07-07T08:00:20.544Z,72.79
2018-07-07T08:01:20.572Z,72.73
2018-07-07T08:02:20.594Z,74.04
2018-07-07T08:03:20.615Z,74.65
2018-07-07T08:04:20.642Z,75.23
2018-07-07T08:05:20.676Z,71.67
2018-07-07T08:06:20.698Z,69.24
2018-07-07T08:07:20.719Z,71.35
2018-07-07T08:08:20.745Z,72.44
2018-07-07T08:09:20.782Z,71.58
2018-07-07T08:10:20.795Z,71.93
2018-07-07T08:11:20.825Z,71.64
2018-07-07T08:12:20.862Z,70.62
2018-07-07T08:13:20.888Z,70.81
2018-07-07T08:14:20.894Z,72.16
2018-07-07T08:15:20.925Z,71.10
2018-07-07T08:16:20.947Z,72.22
2018-07-07T08:17:20.973Z,71.67
2018-07-07T08:18:20.997Z,71.55
2018-07-07T08:19:21.025Z,71.45
2018-07-07T08:20:21.050Z,71.83
2018-07-07T08:21:21.084Z,71.45
2018-07-07T08:22:21.101Z,72.44
2018-07-07T08:23:21.121Z,72.60
2018-07-07T08:24:21.145Z,73.37
2018-07-07T08:25:21.172Z,74.37
2018-07-07T08:26:21.199Z,72.73
2018-07-07T08:27:21.222Z,71.73
2018-07-07T08:28:21.288Z,71.55
2018-07-07T08:29:21.274Z,72.69
2018-07-07T08:30:21.293Z,72.41
2018-07-07T08:31:21.322Z,72.41
2018-07-07T08:32:21.347Z,72.50
2018-07-07T08:33:21.369Z,68.98
2018-07-07T08:34:21.430Z,69.37
2018-07-07T08:35:21.415Z,72.54
2018-07-07T08:36:21.469Z,70.14
2018-07-07T08:37:21.470Z,69.27
2018-07-07T08:38:21.504Z,68.21
2018-07-07T08:39:21.521Z,67.64
2018-07-07T08:40:21.551Z,66.39
2018-07-07T08:41:21.570Z,68.02
2018-07-07T08:42:21.599Z,68.79
2018-07-07T08:43:21.634Z,69.08
2018-07-07T08:44:21.640Z,69.75
2018-07-07T08:45:21.671Z,70.43
2018-07-07T08:46:21.696Z,68.70
2018-07-07T08:47:21.721Z,71.39
2018-07-07T08:48:21.746Z,68.79
2018-07-07T08:49:21.839Z,71.10
2018-07-07T08:50:21.796Z,72.77
2018-07-07T08:51:21.822Z,71.10
2018-07-07T08:52:21.848Z,69.37
2018-07-07T08:53:21.876Z,68.02
2018-07-07T08:54:21.898Z,67.25
2018-07-07T08:55:21.921Z,66.68
2018-07-07T08:56:21.964Z,69.46
2018-07-07T08:57:21.968Z,69.85
2018-07-07T08:58:22.000Z,72.00
2018-07-07T08:59:22.022Z,68.70
2018-07-07T09:00:22.047Z,67.48
2018-07-07T09:01:22.070Z,68.63
2018-07-07T09:02:22.098Z,67.48
2018-07-07T09:03:22.124Z,69.89
2018-07-07T09:04:22.143Z,69.79
2018-07-07T09:05:22.176Z,68.63
2018-07-07T09:06:22.194Z,69.40
2018-07-07T09:07:22.225Z,68.83
2018-07-07T09:08:22.251Z,66.91
2018-07-07T09:09:22.279Z,67.29
2018-07-07T09:10:22.303Z,67.68
2018-07-07T09:11:22.330Z,65.43
2018-07-07T09:12:22.353Z,65.91
2018-07-07T09:13:22.382Z,67.45
2018-07-07T09:14:22.502Z,66.61
2018-07-07T09:15:22.425Z,67.48
2018-07-07T09:16:22.447Z,66.61
2018-07-07T09:17:22.479Z,67.77
2018-07-07T09:18:22.499Z,65.17
2018-07-07T09:19:22.531Z,64.02
2018-07-07T09:20:22.780Z,63.15
2018-07-07T09:21:22.688Z,64.60
2018-07-07T09:22:22.604Z,64.89
2018-07-07T09:23:22.624Z,67.00
2018-07-07T09:24:22.670Z,67.10
2018-07-07T09:25:22.678Z,67.19
2018-07-07T09:26:22.704Z,69.82
2018-07-07T09:27:22.733Z,68.09
2018-07-07T09:28:22.760Z,67.22
2018-07-07T09:29:22.779Z,68.09
2018-07-07T09:30:22.807Z,67.13
2018-07-07T09:31:22.827Z,67.71
2018-07-07T09:32:22.859Z,68.86
2018-07-07T09:33:22.879Z,67.61
2018-07-07T09:34:22.905Z,67.61
2018-07-07T09:35:22.933Z,69.73
2018-07-07T09:36:22.953Z,69.63
2018-07-07T09:37:22.986Z,67.71
2018-07-07T09:38:23.014Z,68.57
2018-07-07T09:39:23.037Z,66.94
2018-07-07T09:40:23.063Z,66.81
2018-07-07T09:41:23.084Z,65.30
2018-07-07T09:42:23.109Z,64.69
2018-07-07T09:43:23.136Z,64.98
2018-07-07T09:44:23.160Z,65.75
2018-07-07T09:45:23.188Z,65.27
2018-07-07T09:46:23.210Z,63.25
2018-07-07T09:47:23.239Z,64.89
2018-07-07T09:48:23.261Z,66.07
2018-07-07T09:49:23.285Z,65.78
2018-07-07T09:50:23.314Z,64.82
2018-07-07T09:51:23.343Z,64.82
2018-07-07T09:52:23.364Z,65.78
2018-07-07T09:53:23.388Z,66.94
2018-07-07T09:54:23.420Z,69.15
2018-07-07T09:55:23.439Z,68.80
2018-07-07T09:56:23.516Z,66.39
2018-07-07T09:57:23.493Z,67.42
2018-07-07T09:58:23.517Z,66.27
2018-07-07T09:59:23.543Z,66.74
2018-07-07T10:00:23.570Z,66.94
2018-07-07T10:01:23.594Z,67.74
2018-07-07T10:02:23.627Z,67.16
2018-07-07T10:03:23.651Z,65.05
2018-07-07T10:04:23.671Z,62.74
2018-07-07T10:05:23.699Z,64.56
2018-07-07T10:06:23.725Z,66.01
2018-07-07T10:07:23.782Z,66.78
2018-07-07T10:08:23.781Z,63.31
2018-07-07T10:09:23.806Z,64.37
2018-07-07T10:10:23.825Z,67.26
2018-07-07T10:11:23.854Z,67.07
2018-07-07T10:12:23.877Z,66.68
2018-07-07T10:13:23.935Z,65.33
2018-07-07T10:14:23.928Z,66.49
2018-07-07T10:15:23.953Z,65.81
2018-07-07T10:16:23.980Z,65.81
2018-07-07T10:17:24.007Z,67.16
2018-07-07T10:18:24.029Z,64.66
2018-07-07T10:19:24.057Z,65.43
2018-07-07T10:20:24.090Z,65.14
2018-07-07T10:21:24.113Z,63.99
2018-07-07T10:22:24.138Z,63.99
2018-07-07T10:23:24.156Z,64.08
2018-07-07T10:24:24.191Z,66.62
2018-07-07T10:25:24.213Z,65.01
2018-07-07T10:26:24.270Z,64.05
2018-07-07T10:27:24.265Z,62.48
2018-07-07T10:28:24.294Z,64.21
2018-07-07T10:29:24.317Z,64.21
2018-07-07T10:30:24.340Z,64.50
2018-07-07T10:31:24.373Z,65.17
2018-07-07T10:32:24.404Z,65.20
2018-07-07T10:33:24.430Z,64.92
2018-07-07T10:34:24.446Z,63.34
2018-07-07T10:35:24.480Z,63.34
2018-07-07T10:36:24.504Z,63.06
2018-07-07T10:37:24.581Z,64.12
2018-07-07T10:38:24.554Z,65.46
2018-07-07T10:39:24.581Z,65.94
2018-07-07T10:40:24.604Z,67.29
2018-07-07T10:41:24.631Z,66.04
2018-07-07T10:42:24.659Z,65.78
2018-07-07T10:43:24.686Z,65.27
2018-07-07T10:44:24.715Z,64.21
2018-07-07T10:45:24.833Z,63.15
2018-07-07T10:46:24.768Z,62.35
2018-07-07T10:47:24.806Z,63.12
2018-07-07T10:48:24.816Z,63.31
2018-07-07T10:49:24.847Z,65.05
2018-07-07T10:50:24.871Z,63.06
2018-07-07T10:51:24.899Z,61.80
2018-07-07T10:52:24.925Z,61.90
2018-07-07T10:53:24.952Z,61.52
2018-07-07T10:54:24.983Z,62.00
2018-07-07T10:55:25.071Z,62.90
2018-07-07T10:56:25.029Z,61.65
2018-07-07T10:57:25.055Z,63.34
2018-07-07T10:58:25.085Z,66.62
2018-07-07T10:59:25.118Z,64.92
2018-07-07T11:00:25.137Z,62.96
2018-07-07T11:01:25.161Z,63.76
2018-07-07T11:02:25.188Z,62.96
2018-07-07T11:03:25.217Z,64.34
2018-07-07T11:04:25.252Z,61.74
2018-07-07T11:05:25.267Z,62.80
2018-07-07T11:06:25.289Z,62.51
2018-07-07T11:07:25.319Z,62.60
2018-07-07T11:08:25.347Z,61.25
2018-07-07T11:09:25.375Z,59.43
2018-07-07T11:10:25.401Z,60.77
2018-07-07T11:11:25.429Z,60.03
2018-07-07T11:12:25.455Z,61.51
2018-07-07T11:13:25.485Z,58.87
2018-07-07T11:14:25.552Z,56.58
2018-07-07T11:15:25.536Z,56.22
2018-07-07T11:16:25.567Z,52.51
2018-07-07T11:17:25.593Z,51.76
2018-07-07T11:18:25.620Z,51.90
2018-07-07T11:19:25.655Z,47.60
2018-07-07T11:20:25.683Z,46.36
2018-07-07T11:21:25.713Z,45.20
2018-07-07T11:22:25.736Z,45.65
2018-07-07T11:23:25.767Z,44.98
2018-07-07T11:24:25.800Z,45.07
2018-07-07T11:25:25.835Z,45.17
2018-07-07T11:26:25.861Z,46.16
2018-07-07T11:27:25.894Z,46.38
2018-07-07T11:28:25.927Z,43.68
2018-07-07T11:29:25.955Z,41.51
2018-07-07T11:30:25.984Z,42.10
2018-07-07T11:31:26.022Z,41.98
2018-07-07T11:32:26.053Z,42.10
2018-07-07T11:33:26.088Z,41.98
2018-07-07T11:34:26.116Z,41.20
2018-07-07T11:35:26.146Z,42.00
2018-07-07T11:36:26.246Z,42.39
2018-07-07T11:37:26.215Z,41.73
2018-07-07T11:38:26.246Z,40.60
2018-07-07T11:39:26.278Z,39.76
2018-07-07T11:40:26.322Z,38.10
2018-07-07T11:41:26.350Z,39.49
2018-07-07T11:42:26.380Z,41.53
2018-07-07T11:43:26.418Z,40.37
2018-07-07T11:44:26.450Z,40.47
2018-07-07T11:45:26.482Z,39.62
2018-07-07T11:46:26.516Z,39.70
2018-07-07T11:47:26.552Z,39.14
2018-07-07T11:48:26.584Z,39.14
2018-07-07T11:49:26.617Z,39.72
2018-07-07T11:50:26.656Z,39.78
2018-07-07T11:51:26.687Z,40.93
2018-07-07T11:52:26.721Z,41.57
2018-07-07T11:53:26.754Z,42.44
2018-07-07T11:54:26.791Z,43.18
2018-07-07T11:55:26.820Z,42.89
2018-07-07T11:56:26.863Z,42.93
2018-07-07T11:57:26.892Z,40.34
2018-07-07T11:58:26.932Z,39.94
2018-07-07T11:59:26.965Z,40.73
2018-07-07T12:00:27.000Z,40.39
2018-07-07T12:01:27.033Z,39.08
2018-07-07T12:02:27.073Z,38.14
2018-07-07T12:03:27.105Z,36.84
2018-07-07T12:04:27.212Z,39.24
2018-07-07T12:05:27.175Z,37.79
2018-07-07T12:06:27.208Z,37.33
2018-07-07T12:07:27.257Z,36.41
2018-07-07T12:08:27.304Z,33.61
2018-07-07T12:09:27.315Z,33.23
2018-07-07T12:10:27.345Z,31.67
2018-07-07T12:11:27.448Z,33.95
2018-07-07T12:12:27.425Z,33.87
2018-07-07T12:13:27.457Z,33.85
2018-07-07T12:14:27.491Z,37.79
2018-07-07T12:15:27.523Z,38.87
2018-07-07T12:16:27.563Z,38.22
2018-07-07T12:17:27.610Z,36.18
2018-07-07T12:18:27.635Z,35.28
2018-07-07T12:19:27.669Z,35.55
2018-07-07T12:20:27.702Z,36.65
2018-07-07T12:21:27.745Z,37.73
2018-07-07T12:22:27.781Z,36.84
2018-07-07T12:23:27.817Z,36.55
2018-07-07T12:24:27.856Z,36.41
2018-07-07T12:25:27.890Z,37.34
2018-07-07T12:26:27.926Z,39.37
2018-07-07T12:27:27.959Z,38.52
2018-07-07T12:28:27.997Z,39.69
2018-07-07T12:29:28.037Z,38.64
2018-07-07T12:30:28.073Z,39.12
2018-07-07T12:31:28.140Z,40.15
2018-07-07T12:32:28.143Z,40.54
2018-07-07T12:33:28.172Z,39.78
2018-07-07T12:34:28.211Z,39.86
2018-07-07T12:35:28.255Z,40.72
2018-07-07T12:36:28.288Z,39.14
2018-07-07T12:37:28.334Z,39.28
2018-07-07T12:38:28.351Z,39.10
2018-07-07T12:39:28.394Z,38.85
2018-07-07T12:40:28.469Z,38.56
2018-07-07T12:41:28.467Z,38.87
2018-07-07T12:42:28.501Z,36.33
2018-07-07T12:43:28.571Z,34.89
2018-07-07T12:44:28.569Z,34.53
2018-07-07T12:45:28.610Z,35.59
2018-07-07T12:46:28.645Z,35.96
2018-07-07T12:47:28.680Z,35.85
2018-07-07T12:48:28.725Z,36.74
2018-07-07T12:49:28.755Z,37.31
2018-07-07T12:50:28.791Z,37.80
2018-07-07T12:51:28.828Z,38.95
2018-07-07T12:52:28.865Z,39.14